ポートルイス の空港の天気 - METARとTAF

サー・シウサガル・ラングラーム国際空港 ( FIMP / MRU ) - モーリシャス ポートルイス
飛行場実況気象(Metar)
観測時間07/26 19:00 MUT (07/26 15:00 UTC)
風向・風速南南東 5m/s
視程10km以上
天気現象周辺でしゅう雨
全天の8割程度の雲 雲底高度 490m
気温20℃
湿度88%
気圧1020hPa
METARFIMP 261500Z 15010KT 9999 VCSH BKN016 20/18 Q1020
過去の天気等 Google飛行場航空写真 Wunderground天気予報

過去48時間のMETAR

飛行場予報(TAF)
発表時間: 7/26 15:20 MUT (7/26 11:20 UTC)
予報対象時間: 26日16時 MUT ~ 27日22時 MUT
風向・風速南南東 8m/s 瞬間風速 13m/s
視程10km以上
全天の4割程度の雲 雲底高度 460m
26日18時 MUT ~ 27日6時 MUT に一時的に
視程7000m
天気現象弱いしゅう雨
少しの雲 雲底高度 300m
全天の8割程度の雲 雲底高度 430m
TAF FIMP 261120Z 2612/2718 15015G25KT 9999 SCT015
TEMPO 2614/2702 7000 -SHRA FEW010 BKN014